MDT,Max TemperatureF,Mean TemperatureF,Min TemperatureF,Max Dew PointF,MeanDew PointF,Min DewpointF,Max Humidity, Mean Humidity, Min Humidity, Max Sea Level PressureIn, Mean Sea Level PressureIn, Min Sea Level PressureIn, Max VisibilityMiles, Mean VisibilityMiles, Min VisibilityMiles, Max Wind SpeedMPH, Mean Wind SpeedMPH, Max Gust SpeedMPH,PrecipitationIn, CloudCover, Events, WindDirDegrees
2012-9-1,69,55,41,55,48,41,100,81,46,30.18,30.13,30.04,10,8,0,18,3,24,0.00,2,Fog,290
2012-9-2,69,55,41,55,49,41,100,81,49,30.21,30.18,30.13,10,9,0,16,3,20,0.00,2,Fog,291
2012-9-3,69,56,44,59,53,45,100,89,64,30.16,30.14,30.11,10,8,0,20,3,24,0.00,3,Fog,311
2012-9-4,69,60,50,59,55,50,100,89,60,30.19,30.15,30.10,10,7,0,14,2,18,0.00,4,Fog,322
2012-9-5,66,58,51,63,56,52,100,94,68,30.10,30.03,29.97,10,5,0,15,2,,0.00,6,Fog,311
2012-9-6,68,62,55,61,57,55,100,93,68,30.02,29.99,29.96,10,7,2,9,2,,0.00,6,,321
2012-9-7,71,58,44,63,55,45,100,88,57,30.09,30.05,30.01,,,,9,2,,0.00,4,,275
2012-9-8,62,60,57,61,55,48,100,89,67,30.09,30.07,30.04,,,,10,3,,0.00,8,,199
2012-9-9,66,60,55,57,53,50,94,80,68,30.08,30.06,30.02,,,,13,3,20,0.00,8,,189
2012-9-10,68,59,48,59,53,45,100,83,46,30.24,30.16,30.06,,,,18,4,22,0.02,3,,274
2012-9-11,66,52,37,52,46,37,100,81,49,30.27,30.24,30.19,,,,25,4,33,0.00,3,,303
2012-9-12,86,62,39,52,42,27,100,68,12,30.22,30.16,30.08,,,,16,2,22,0.00,0,,52
2012-9-13,84,65,46,46,42,36,82,53,19,30.10,30.07,30.03,,,,9,5,,0.00,0,,167
2012-9-14,68,56,44,55,50,43,100,86,56,30.12,30.09,30.06,10,7,0,12,2,,0.00,4,Fog,262
2012-9-15,71,60,50,55,52,48,100,79,57,30.20,30.16,30.12,10,9,5,16,2,23,0.00,4,,312
2012-9-16,66,52,39,55,48,39,100,87,49,30.20,30.15,30.06,10,8,0,9,2,,0.00,2,Fog,304
2012-9-17,86,64,42,57,50,43,100,74,27,30.06,30.01,29.98,10,9,2,8,1,,0.00,1,,303
2012-9-18,64,55,46,54,51,46,100,87,68,30.15,30.09,30.01,10,9,0,10,2,,0.00,6,Fog,245
2012-9-19,60,56,53,54,52,52,100,87,77,30.17,30.15,30.12,10,9,4,6,2,,0.00,8,,304
2012-9-20,62,58,55,57,55,52,100,90,72,30.15,30.12,30.11,10,9,4,6,1,,0.00,8,,237
2012-9-21,62,56,50,59,55,50,100,94,77,30.18,30.15,30.14,10,6,0,6,0,,0.02,7,Fog-Rain,270
2012-9-22,69,56,42,59,50,43,100,84,49,30.19,30.16,30.13,10,6,0,9,1,,0.01,4,Fog,255
2012-9-23,69,56,44,61,51,45,100,86,52,30.14,30.13,30.11,10,4,0,10,2,,0.00,3,Fog,281
2012-9-24,68,56,44,57,50,45,100,86,59,30.17,30.14,30.10,,,,14,2,,0.00,5,,295
2012-9-25,64,54,44,57,49,43,100,81,56,30.16,30.14,30.11,,,,18,5,22,0.00,3,,275
2012-9-26,66,52,37,55,46,37,100,88,59,30.13,30.07,30.00,,,,10,1,,0.00,3,,298
2012-9-27,75,58,42,61,50,43,100,83,43,30.03,29.98,29.91,,,,10,1,,0.00,4,,305
2012-9-28,73,62,51,57,53,50,100,82,53,30.06,29.98,29.93,10,7,4,10,1,,0.00,1,,320
2012-9-29,68,57,46,57,51,43,100,81,49,30.29,30.18,30.06,,,,23,4,32,0.00,4,,295
2012-9-30,69,53,37,50,44,37,100,78,46,30.37,30.32,30.29,,,,15,2,,0.00,0,,298